Airfield :
LOGIN :

Register | Disclaimer

   EN    FR    IT 

 










Legend :    VFR   Marginal VFR   IFR   Intensive IFR   Very Intensive IFR
Visi :
Ceiling :
>= 8 km
>= 3000ft
5 to 8 km
1000 to 3000 ft
1500m to 5 km
500 to 1000 ft
800 to 1500m
200 to 500 ft
< 800m
< 200 ft
Symbols :   Thunderstorms  Fog  Heavy snow  Heavy precipitations  Wind > 20 kt
SIGMETs :     Misc.  Thunderstorms  Icing  Turbulence  Mountain Waves  Volcanic Ashes







- Airport Elevation : 1416 ft
- IATA code : ZRH


LSZH - Zurich

CURRENT METAR :
  • 101750Z 23004KT 180V270 9999 3000NW VCSH FEW013 SCT020 BKN050 04/03 Q1024 TEMPO 4000 SHRA

EXPIRED METARs :
  • 101720Z 21004KT 150V280 9999 VCSH FEW013 SCT045 BKN060 03/02 Q1024 NOSIG
  • 101650Z 26004KT 220V290 9999 VCSH FEW013 SCT040 BKN200 04/02 Q1024 RESHRA NOSIG
  • 101620Z 26009KT 9999 4500SW SHRA FEW011 SCT020 BKN035 04/02 Q1023 BECMG NSW
  • 101550Z 24007KT 7000 -SHRA FEW013 SCT018 BKN030 04/02 Q1023 TEMPO 3000 SHRA
  • 101520Z VRB03KT 9999 VCSH FEW015 SCT045 BKN080 04/02 Q1023 TEMPO 3000 SHRA

TAF TAF LSZH
Valid from the 10 at 18:00 until the 12 at 00:00 UTC


101725Z 1018/1124 25005KT 9999 FEW010 SCT030 BKN050 TX04/1115Z TN00/1106Z
PROB40
TEMPO 1019/1103 SHRA
PROB30
TEMPO 1021/1108 4000 SHRASN BKN014
ATIS : +41 43 816 2295 (DEP) +41 43 816 2294 (ARR)
No reported NOTAMs for that airfield.



MET'MAP, your aeronautical weather chart ! - Copyright ORBIFLY December 2007 - Disclaimer

ORBIFLY MET'MAP TEAM :

Programming & Development : Alexandra Zaïnal
Concept & Development : Baudouin d'Aumeries
Co-Development & Prog : Marc-Olivier Méhu
Technical & hardware support : Manuel Goepfert

Contact : metmap@orbifly.com




SOURCES & CREDITS :

   NOAA